sensor_id;sensor_type;location;lat;lon;timestamp;temperature;humidity
43995;DHT22;51687;52.160;5.298;2023-04-10T00:02:22;16.90;42.20
43995;DHT22;51687;52.160;5.298;2023-04-10T00:04:49;17.00;42.60
43995;DHT22;51687;52.160;5.298;2023-04-10T00:07:16;17.00;42.20
43995;DHT22;51687;52.160;5.298;2023-04-10T00:09:43;17.00;42.00
43995;DHT22;51687;52.160;5.298;2023-04-10T00:12:10;16.90;42.00
43995;DHT22;51687;52.160;5.298;2023-04-10T00:14:37;17.00;42.00
43995;DHT22;51687;52.160;5.298;2023-04-10T00:17:04;17.00;41.60
43995;DHT22;51687;52.160;5.298;2023-04-10T00:19:30;16.90;42.20
43995;DHT22;51687;52.160;5.298;2023-04-10T00:21:57;16.90;42.10
43995;DHT22;51687;52.160;5.298;2023-04-10T00:24:24;16.90;42.60
43995;DHT22;51687;52.160;5.298;2023-04-10T00:26:51;16.90;42.20
43995;DHT22;51687;52.160;5.298;2023-04-10T00:29:17;16.90;42.20
43995;DHT22;51687;52.160;5.298;2023-04-10T00:31:44;16.90;42.50
43995;DHT22;51687;52.160;5.298;2023-04-10T00:34:11;16.80;42.40
43995;DHT22;51687;52.160;5.298;2023-04-10T00:36:39;16.90;42.50
43995;DHT22;51687;52.160;5.298;2023-04-10T00:39:07;16.80;42.90
43995;DHT22;51687;52.160;5.298;2023-04-10T00:41:34;16.80;42.60
43995;DHT22;51687;52.160;5.298;2023-04-10T00:44:01;16.80;42.90
43995;DHT22;51687;52.160;5.298;2023-04-10T00:46:28;16.80;42.70
43995;DHT22;51687;52.160;5.298;2023-04-10T00:48:56;16.80;43.20
43995;DHT22;51687;52.160;5.298;2023-04-10T00:51:23;16.80;42.20
43995;DHT22;51687;52.160;5.298;2023-04-10T00:53:50;16.80;43.10
43995;DHT22;51687;52.160;5.298;2023-04-10T00:56:18;16.70;43.10
43995;DHT22;51687;52.160;5.298;2023-04-10T00:58:46;16.70;42.50
43995;DHT22;51687;52.160;5.298;2023-04-10T01:01:12;16.70;42.80
43995;DHT22;51687;52.160;5.298;2023-04-10T01:03:40;16.70;42.80
43995;DHT22;51687;52.160;5.298;2023-04-10T01:14:37;16.70;43.40
43995;DHT22;51687;52.160;5.298;2023-04-10T01:17:13;16.70;42.90
43995;DHT22;51687;52.160;5.298;2023-04-10T01:22:20;16.70;43.00
43995;DHT22;51687;52.160;5.298;2023-04-10T01:25:18;16.70;43.50
43995;DHT22;51687;52.160;5.298;2023-04-10T01:30:37;16.70;43.50
43995;DHT22;51687;52.160;5.298;2023-04-10T01:33:08;16.70;42.90
43995;DHT22;51687;52.160;5.298;2023-04-10T01:35:37;16.60;42.60
43995;DHT22;51687;52.160;5.298;2023-04-10T01:38:05;16.60;43.20
43995;DHT22;51687;52.160;5.298;2023-04-10T01:40:32;16.60;43.10
43995;DHT22;51687;52.160;5.298;2023-04-10T01:43:02;16.60;44.10
43995;DHT22;51687;52.160;5.298;2023-04-10T01:45:31;16.60;43.00
43995;DHT22;51687;52.160;5.298;2023-04-10T01:47:59;16.60;43.30
43995;DHT22;51687;52.160;5.298;2023-04-10T01:50:26;16.60;42.80
43995;DHT22;51687;52.160;5.298;2023-04-10T02:13:29;16.50;42.80
43995;DHT22;51687;52.160;5.298;2023-04-10T02:16:00;16.40;43.60
43995;DHT22;51687;52.160;5.298;2023-04-10T02:18:32;16.30;43.30
43995;DHT22;51687;52.160;5.298;2023-04-10T02:21:00;16.30;43.10
43995;DHT22;51687;52.160;5.298;2023-04-10T02:23:28;16.30;43.40
43995;DHT22;51687;52.160;5.298;2023-04-10T02:25:54;16.30;43.00
43995;DHT22;51687;52.160;5.298;2023-04-10T02:28:24;16.20;43.30
43995;DHT22;51687;52.160;5.298;2023-04-10T02:30:51;16.30;43.70
43995;DHT22;51687;52.160;5.298;2023-04-10T02:33:18;16.20;43.70
43995;DHT22;51687;52.160;5.298;2023-04-10T02:35:45;16.20;43.30
43995;DHT22;51687;52.160;5.298;2023-04-10T02:38:13;16.20;43.20
43995;DHT22;51687;52.160;5.298;2023-04-10T02:40:42;16.20;43.10
43995;DHT22;51687;52.160;5.298;2023-04-10T02:43:09;16.20;43.30
43995;DHT22;51687;52.160;5.298;2023-04-10T02:45:36;16.20;43.20
43995;DHT22;51687;52.160;5.298;2023-04-10T02:57:54;16.10;43.10
43995;DHT22;51687;52.160;5.298;2023-04-10T03:00:21;16.10;43.50
43995;DHT22;51687;52.160;5.298;2023-04-10T03:02:48;16.10;43.20
43995;DHT22;51687;52.160;5.298;2023-04-10T03:05:16;16.00;43.10
43995;DHT22;51687;52.160;5.298;2023-04-10T03:07:42;16.00;43.10
43995;DHT22;51687;52.160;5.298;2023-04-10T03:10:09;16.00;43.10
43995;DHT22;51687;52.160;5.298;2023-04-10T03:12:36;16.00;43.30
43995;DHT22;51687;52.160;5.298;2023-04-10T03:15:03;16.00;43.60
43995;DHT22;51687;52.160;5.298;2023-04-10T03:17:30;16.00;43.50
43995;DHT22;51687;52.160;5.298;2023-04-10T03:19:57;16.00;44.00
43995;DHT22;51687;52.160;5.298;2023-04-10T03:22:24;16.00;43.70
43995;DHT22;51687;52.160;5.298;2023-04-10T03:24:52;16.00;43.60
43995;DHT22;51687;52.160;5.298;2023-04-10T03:27:19;16.00;43.30
43995;DHT22;51687;52.160;5.298;2023-04-10T03:29:46;16.00;43.10
43995;DHT22;51687;52.160;5.298;2023-04-10T03:32:13;16.00;43.50
43995;DHT22;51687;52.160;5.298;2023-04-10T03:34:39;16.00;43.10
43995;DHT22;51687;52.160;5.298;2023-04-10T03:37:06;16.00;43.20
43995;DHT22;51687;52.160;5.298;2023-04-10T03:39:33;16.00;43.30
43995;DHT22;51687;52.160;5.298;2023-04-10T03:42:00;16.00;43.70
43995;DHT22;51687;52.160;5.298;2023-04-10T03:44:26;16.00;43.60
43995;DHT22;51687;52.160;5.298;2023-04-10T03:46:53;16.00;43.30
43995;DHT22;51687;52.160;5.298;2023-04-10T03:49:20;16.00;43.70
43995;DHT22;51687;52.160;5.298;2023-04-10T03:51:47;16.00;44.00
43995;DHT22;51687;52.160;5.298;2023-04-10T03:54:13;16.00;43.90
43995;DHT22;51687;52.160;5.298;2023-04-10T03:56:40;16.00;43.50
43995;DHT22;51687;52.160;5.298;2023-04-10T03:59:07;15.90;43.50
43995;DHT22;51687;52.160;5.298;2023-04-10T04:01:33;16.00;43.80
43995;DHT22;51687;52.160;5.298;2023-04-10T04:04:00;16.00;43.60
43995;DHT22;51687;52.160;5.298;2023-04-10T04:06:28;15.90;43.50
43995;DHT22;51687;52.160;5.298;2023-04-10T04:08:54;15.90;43.70
43995;DHT22;51687;52.160;5.298;2023-04-10T04:11:21;15.90;44.00
43995;DHT22;51687;52.160;5.298;2023-04-10T04:13:48;15.90;44.60
43995;DHT22;51687;52.160;5.298;2023-04-10T04:16:14;15.90;44.00
43995;DHT22;51687;52.160;5.298;2023-04-10T04:18:41;15.90;43.80
43995;DHT22;51687;52.160;5.298;2023-04-10T04:21:08;15.90;43.90
43995;DHT22;51687;52.160;5.298;2023-04-10T04:23:35;15.90;43.70
43995;DHT22;51687;52.160;5.298;2023-04-10T04:26:02;15.90;44.10
43995;DHT22;51687;52.160;5.298;2023-04-10T04:28:28;15.90;44.00
43995;DHT22;51687;52.160;5.298;2023-04-10T04:30:56;15.90;43.90
43995;DHT22;51687;52.160;5.298;2023-04-10T04:33:22;15.90;43.80
43995;DHT22;51687;52.160;5.298;2023-04-10T04:35:49;15.90;44.30
43995;DHT22;51687;52.160;5.298;2023-04-10T04:38:16;15.90;44.20
43995;DHT22;51687;52.160;5.298;2023-04-10T04:40:45;15.90;44.30
43995;DHT22;51687;52.160;5.298;2023-04-10T04:43:12;15.90;44.40
43995;DHT22;51687;52.160;5.298;2023-04-10T04:45:39;15.90;44.20
43995;DHT22;51687;52.160;5.298;2023-04-10T04:48:05;15.90;44.50
43995;DHT22;51687;52.160;5.298;2023-04-10T04:50:32;15.90;44.50
43995;DHT22;51687;52.160;5.298;2023-04-10T04:52:59;15.90;44.60
43995;DHT22;51687;52.160;5.298;2023-04-10T04:55:26;15.90;44.40
43995;DHT22;51687;52.160;5.298;2023-04-10T04:57:53;15.90;44.50
43995;DHT22;51687;52.160;5.298;2023-04-10T05:00:19;15.90;44.20
43995;DHT22;51687;52.160;5.298;2023-04-10T05:02:46;15.90;44.30
43995;DHT22;51687;52.160;5.298;2023-04-10T05:05:13;15.90;44.30
43995;DHT22;51687;52.160;5.298;2023-04-10T05:07:40;15.90;44.40
43995;DHT22;51687;52.160;5.298;2023-04-10T05:10:07;15.90;44.30
43995;DHT22;51687;52.160;5.298;2023-04-10T05:12:34;15.90;44.40
43995;DHT22;51687;52.160;5.298;2023-04-10T05:15:01;15.90;44.20
43995;DHT22;51687;52.160;5.298;2023-04-10T05:17:28;15.90;44.10
43995;DHT22;51687;52.160;5.298;2023-04-10T05:19:54;15.90;44.30
43995;DHT22;51687;52.160;5.298;2023-04-10T05:22:21;15.80;43.90
43995;DHT22;51687;52.160;5.298;2023-04-10T05:24:48;15.80;44.10
43995;DHT22;51687;52.160;5.298;2023-04-10T05:27:16;15.80;44.20
43995;DHT22;51687;52.160;5.298;2023-04-10T05:29:43;15.80;44.20
43995;DHT22;51687;52.160;5.298;2023-04-10T05:32:10;15.80;44.00
43995;DHT22;51687;52.160;5.298;2023-04-10T05:34:37;15.80;44.30
43995;DHT22;51687;52.160;5.298;2023-04-10T05:37:03;15.80;44.10
43995;DHT22;51687;52.160;5.298;2023-04-10T05:39:30;15.80;44.20
43995;DHT22;51687;52.160;5.298;2023-04-10T05:41:57;15.80;44.90
43995;DHT22;51687;52.160;5.298;2023-04-10T05:44:24;15.90;44.90
43995;DHT22;51687;52.160;5.298;2023-04-10T05:46:50;15.90;44.30
43995;DHT22;51687;52.160;5.298;2023-04-10T05:49:17;16.00;44.50
43995;DHT22;51687;52.160;5.298;2023-04-10T05:51:44;16.00;43.90
43995;DHT22;51687;52.160;5.298;2023-04-10T05:54:16;16.10;44.20
43995;DHT22;51687;52.160;5.298;2023-04-10T05:56:42;16.10;44.00
43995;DHT22;51687;52.160;5.298;2023-04-10T05:59:09;16.20;43.70
43995;DHT22;51687;52.160;5.298;2023-04-10T06:01:36;16.20;44.50
43995;DHT22;51687;52.160;5.298;2023-04-10T06:04:03;16.30;43.90
43995;DHT22;51687;52.160;5.298;2023-04-10T06:06:30;16.30;43.50
43995;DHT22;51687;52.160;5.298;2023-04-10T06:08:58;16.30;43.40
43995;DHT22;51687;52.160;5.298;2023-04-10T07:25:24;16.40;43.20
43995;DHT22;51687;52.160;5.298;2023-04-10T07:27:51;16.60;40.70
43995;DHT22;51687;52.160;5.298;2023-04-10T07:30:18;16.60;41.20
43995;DHT22;51687;52.160;5.298;2023-04-10T07:32:46;16.60;41.60
43995;DHT22;51687;52.160;5.298;2023-04-10T07:35:13;16.60;41.50
43995;DHT22;51687;52.160;5.298;2023-04-10T07:37:40;16.50;42.00
43995;DHT22;51687;52.160;5.298;2023-04-10T07:40:09;16.50;41.80
43995;DHT22;51687;52.160;5.298;2023-04-10T07:42:36;16.40;41.40
43995;DHT22;51687;52.160;5.298;2023-04-10T07:45:04;16.40;41.50
43995;DHT22;51687;52.160;5.298;2023-04-10T07:47:31;16.40;41.10
43995;DHT22;51687;52.160;5.298;2023-04-10T07:49:57;16.30;41.00
43995;DHT22;51687;52.160;5.298;2023-04-10T07:52:24;16.20;41.30
43995;DHT22;51687;52.160;5.298;2023-04-10T07:54:51;16.00;41.50
43995;DHT22;51687;52.160;5.298;2023-04-10T07:57:18;15.90;41.50
43995;DHT22;51687;52.160;5.298;2023-04-10T07:59:44;15.80;42.40
43995;DHT22;51687;52.160;5.298;2023-04-10T08:07:06;15.70;42.60
43995;DHT22;51687;52.160;5.298;2023-04-10T08:09:33;15.50;43.20
43995;DHT22;51687;52.160;5.298;2023-04-10T08:11:59;15.50;43.60
43995;DHT22;51687;52.160;5.298;2023-04-10T08:14:26;15.50;43.40
43995;DHT22;51687;52.160;5.298;2023-04-10T08:16:53;15.50;43.50
43995;DHT22;51687;52.160;5.298;2023-04-10T08:19:20;15.60;43.80
43995;DHT22;51687;52.160;5.298;2023-04-10T08:21:47;15.60;43.60
43995;DHT22;51687;52.160;5.298;2023-04-10T08:24:14;15.60;43.80
43995;DHT22;51687;52.160;5.298;2023-04-10T08:26:45;15.60;43.70
43995;DHT22;51687;52.160;5.298;2023-04-10T08:29:11;15.70;44.70
43995;DHT22;51687;52.160;5.298;2023-04-10T08:31:38;15.80;43.50
43995;DHT22;51687;52.160;5.298;2023-04-10T08:34:05;15.80;43.70
43995;DHT22;51687;52.160;5.298;2023-04-10T08:36:32;15.80;44.10
43995;DHT22;51687;52.160;5.298;2023-04-10T08:38:59;15.80;43.90
43995;DHT22;51687;52.160;5.298;2023-04-10T08:41:26;15.90;43.90
43995;DHT22;51687;52.160;5.298;2023-04-10T08:43:54;16.00;43.40
43995;DHT22;51687;52.160;5.298;2023-04-10T08:46:22;16.00;44.20
43995;DHT22;51687;52.160;5.298;2023-04-10T08:49:04;16.00;45.20
43995;DHT22;51687;52.160;5.298;2023-04-10T08:51:35;16.10;44.60
43995;DHT22;51687;52.160;5.298;2023-04-10T08:54:17;16.10;44.50
43995;DHT22;51687;52.160;5.298;2023-04-10T08:56:49;16.10;43.50
43995;DHT22;51687;52.160;5.298;2023-04-10T08:59:17;16.20;43.60
43995;DHT22;51687;52.160;5.298;2023-04-10T09:01:44;16.20;43.60
43995;DHT22;51687;52.160;5.298;2023-04-10T09:04:13;16.30;43.70
43995;DHT22;51687;52.160;5.298;2023-04-10T09:06:40;16.30;43.70
43995;DHT22;51687;52.160;5.298;2023-04-10T09:09:07;16.30;43.10
43995;DHT22;51687;52.160;5.298;2023-04-10T09:14:23;16.30;43.80
43995;DHT22;51687;52.160;5.298;2023-04-10T09:16:51;16.30;43.20
43995;DHT22;51687;52.160;5.298;2023-04-10T09:19:31;16.30;43.20
43995;DHT22;51687;52.160;5.298;2023-04-10T09:21:58;16.30;42.90
43995;DHT22;51687;52.160;5.298;2023-04-10T10:11:34;16.30;43.30
43995;DHT22;51687;52.160;5.298;2023-04-10T10:14:05;16.90;43.30
43995;DHT22;51687;52.160;5.298;2023-04-10T10:16:49;16.90;43.80
43995;DHT22;51687;52.160;5.298;2023-04-10T10:19:22;16.90;44.50
43995;DHT22;51687;52.160;5.298;2023-04-10T10:21:53;17.00;43.80
43995;DHT22;51687;52.160;5.298;2023-04-10T10:24:22;17.00;44.10
43995;DHT22;51687;52.160;5.298;2023-04-10T10:26:49;17.00;43.20
43995;DHT22;51687;52.160;5.298;2023-04-10T10:29:17;17.00;42.90
43995;DHT22;51687;52.160;5.298;2023-04-10T10:31:45;17.10;44.20
43995;DHT22;51687;52.160;5.298;2023-04-10T10:34:14;17.10;44.40
43995;DHT22;51687;52.160;5.298;2023-04-10T10:36:42;17.10;44.40
43995;DHT22;51687;52.160;5.298;2023-04-10T10:40:26;17.10;44.50
43995;DHT22;51687;52.160;5.298;2023-04-10T10:45:35;17.20;44.90
43995;DHT22;51687;52.160;5.298;2023-04-10T10:48:04;17.20;44.50
43995;DHT22;51687;52.160;5.298;2023-04-10T10:50:51;17.20;43.90
43995;DHT22;51687;52.160;5.298;2023-04-10T10:53:33;17.20;46.60
43995;DHT22;51687;52.160;5.298;2023-04-10T10:58:47;17.20;44.40
43995;DHT22;51687;52.160;5.298;2023-04-10T11:01:14;17.20;44.60
43995;DHT22;51687;52.160;5.298;2023-04-10T11:03:42;17.30;44.60
43995;DHT22;51687;52.160;5.298;2023-04-10T11:08:49;17.30;45.00
43995;DHT22;51687;52.160;5.298;2023-04-10T11:11:24;17.40;45.00
43995;DHT22;51687;52.160;5.298;2023-04-10T11:16:44;17.40;44.20
43995;DHT22;51687;52.160;5.298;2023-04-10T11:19:12;17.40;44.10
43995;DHT22;51687;52.160;5.298;2023-04-10T11:24:25;17.40;45.30
43995;DHT22;51687;52.160;5.298;2023-04-10T11:26:52;17.40;44.20
43995;DHT22;51687;52.160;5.298;2023-04-10T11:32:01;17.40;44.70
43995;DHT22;51687;52.160;5.298;2023-04-10T11:34:28;17.40;44.50
43995;DHT22;51687;52.160;5.298;2023-04-10T11:46:52;17.60;45.20
43995;DHT22;51687;52.160;5.298;2023-04-10T11:49:23;17.60;44.90
43995;DHT22;51687;52.160;5.298;2023-04-10T11:51:50;17.70;45.00
43995;DHT22;51687;52.160;5.298;2023-04-10T11:54:19;17.70;44.60
43995;DHT22;51687;52.160;5.298;2023-04-10T11:57:02;17.80;44.90
43995;DHT22;51687;52.160;5.298;2023-04-10T11:59:33;17.80;44.70
43995;DHT22;51687;52.160;5.298;2023-04-10T12:02:13;17.80;45.20
43995;DHT22;51687;52.160;5.298;2023-04-10T12:04:42;17.80;45.00
43995;DHT22;51687;52.160;5.298;2023-04-10T12:07:10;17.80;44.60
43995;DHT22;51687;52.160;5.298;2023-04-10T12:47:22;17.90;45.00
43995;DHT22;51687;52.160;5.298;2023-04-10T12:50:25;18.30;44.00
43995;DHT22;51687;52.160;5.298;2023-04-10T12:53:05;18.20;43.80
43995;DHT22;51687;52.160;5.298;2023-04-10T12:55:33;18.20;44.00
43995;DHT22;51687;52.160;5.298;2023-04-10T12:58:17;18.20;43.70
43995;DHT22;51687;52.160;5.298;2023-04-10T13:00:46;18.10;43.80
43995;DHT22;51687;52.160;5.298;2023-04-10T13:03:13;18.10;43.80
43995;DHT22;51687;52.160;5.298;2023-04-10T13:05:41;18.10;44.50
43995;DHT22;51687;52.160;5.298;2023-04-10T13:08:08;18.10;44.40
43995;DHT22;51687;52.160;5.298;2023-04-10T13:10:34;18.20;44.00
43995;DHT22;51687;52.160;5.298;2023-04-10T13:13:03;18.20;44.10
43995;DHT22;51687;52.160;5.298;2023-04-10T13:15:33;18.20;44.10
43995;DHT22;51687;52.160;5.298;2023-04-10T13:18:03;18.20;44.10
43995;DHT22;51687;52.160;5.298;2023-04-10T13:20:38;18.20;44.70
43995;DHT22;51687;52.160;5.298;2023-04-10T13:23:06;18.20;43.90
43995;DHT22;51687;52.160;5.298;2023-04-10T13:25:37;18.20;44.00
43995;DHT22;51687;52.160;5.298;2023-04-10T13:28:06;18.20;44.90
43995;DHT22;51687;52.160;5.298;2023-04-10T13:30:38;18.20;44.70
43995;DHT22;51687;52.160;5.298;2023-04-10T13:33:06;18.20;45.70
43995;DHT22;51687;52.160;5.298;2023-04-10T13:35:33;18.20;46.20
43995;DHT22;51687;52.160;5.298;2023-04-10T13:38:00;18.10;46.50
43995;DHT22;51687;52.160;5.298;2023-04-10T13:40:27;18.10;47.20
43995;DHT22;51687;52.160;5.298;2023-04-10T13:42:53;18.20;47.30
43995;DHT22;51687;52.160;5.298;2023-04-10T13:45:20;18.20;46.70
43995;DHT22;51687;52.160;5.298;2023-04-10T13:47:47;18.20;47.00
43995;DHT22;51687;52.160;5.298;2023-04-10T13:50:14;18.10;48.00
43995;DHT22;51687;52.160;5.298;2023-04-10T13:52:41;18.10;48.50
43995;DHT22;51687;52.160;5.298;2023-04-10T13:55:08;18.10;49.30
43995;DHT22;51687;52.160;5.298;2023-04-10T13:57:35;18.10;49.10
43995;DHT22;51687;52.160;5.298;2023-04-10T14:00:02;18.10;48.60
43995;DHT22;51687;52.160;5.298;2023-04-10T14:02:30;18.10;49.20
43995;DHT22;51687;52.160;5.298;2023-04-10T14:04:57;18.10;50.30
43995;DHT22;51687;52.160;5.298;2023-04-10T14:07:23;18.10;50.40
43995;DHT22;51687;52.160;5.298;2023-04-10T14:09:50;18.10;52.00
43995;DHT22;51687;52.160;5.298;2023-04-10T14:12:17;18.10;52.00
43995;DHT22;51687;52.160;5.298;2023-04-10T14:14:44;18.10;52.60
43995;DHT22;51687;52.160;5.298;2023-04-10T14:17:11;18.00;53.00
43995;DHT22;51687;52.160;5.298;2023-04-10T14:19:38;18.00;53.50
43995;DHT22;51687;52.160;5.298;2023-04-10T14:22:05;18.10;54.80
43995;DHT22;51687;52.160;5.298;2023-04-10T14:24:32;18.00;54.80
43995;DHT22;51687;52.160;5.298;2023-04-10T14:26:59;18.10;54.90
43995;DHT22;51687;52.160;5.298;2023-04-10T14:29:27;18.00;55.70
43995;DHT22;51687;52.160;5.298;2023-04-10T14:32:04;18.00;54.40
43995;DHT22;51687;52.160;5.298;2023-04-10T14:34:31;18.00;54.50
43995;DHT22;51687;52.160;5.298;2023-04-10T14:36:59;17.90;55.10
43995;DHT22;51687;52.160;5.298;2023-04-10T14:39:26;17.90;55.20
43995;DHT22;51687;52.160;5.298;2023-04-10T14:41:53;17.90;55.50
43995;DHT22;51687;52.160;5.298;2023-04-10T14:44:19;17.80;56.50
43995;DHT22;51687;52.160;5.298;2023-04-10T14:46:46;17.70;56.90
43995;DHT22;51687;52.160;5.298;2023-04-10T14:49:13;17.60;57.10
43995;DHT22;51687;52.160;5.298;2023-04-10T14:51:44;17.60;57.30
43995;DHT22;51687;52.160;5.298;2023-04-10T14:54:11;17.50;57.50
43995;DHT22;51687;52.160;5.298;2023-04-10T14:56:38;17.50;57.20
43995;DHT22;51687;52.160;5.298;2023-04-10T14:59:04;17.40;57.90
43995;DHT22;51687;52.160;5.298;2023-04-10T15:01:33;17.40;58.70
43995;DHT22;51687;52.160;5.298;2023-04-10T15:04:01;17.40;59.10
43995;DHT22;51687;52.160;5.298;2023-04-10T15:06:28;17.40;59.00
43995;DHT22;51687;52.160;5.298;2023-04-10T15:08:57;17.40;59.30
43995;DHT22;51687;52.160;5.298;2023-04-10T15:11:24;17.40;60.20
43995;DHT22;51687;52.160;5.298;2023-04-10T15:13:51;17.30;60.60
43995;DHT22;51687;52.160;5.298;2023-04-10T15:16:18;17.30;60.60
43995;DHT22;51687;52.160;5.298;2023-04-10T15:18:46;17.30;61.00
43995;DHT22;51687;52.160;5.298;2023-04-10T15:21:14;17.30;61.40
43995;DHT22;51687;52.160;5.298;2023-04-10T15:23:41;17.30;61.70
43995;DHT22;51687;52.160;5.298;2023-04-10T15:26:12;17.30;62.20
43995;DHT22;51687;52.160;5.298;2023-04-10T15:28:40;17.40;62.50
43995;DHT22;51687;52.160;5.298;2023-04-10T15:31:09;17.40;62.10
43995;DHT22;51687;52.160;5.298;2023-04-10T15:33:36;17.40;62.40
43995;DHT22;51687;52.160;5.298;2023-04-10T15:36:06;17.40;62.20
43995;DHT22;51687;52.160;5.298;2023-04-10T15:38:34;17.40;62.10
43995;DHT22;51687;52.160;5.298;2023-04-10T15:41:07;17.40;61.80
43995;DHT22;51687;52.160;5.298;2023-04-10T15:43:34;17.40;62.10
43995;DHT22;51687;52.160;5.298;2023-04-10T15:46:02;17.40;62.30
43995;DHT22;51687;52.160;5.298;2023-04-10T15:48:29;17.40;62.30
43995;DHT22;51687;52.160;5.298;2023-04-10T15:50:55;17.40;62.40
43995;DHT22;51687;52.160;5.298;2023-04-10T15:53:22;17.40;62.80
43995;DHT22;51687;52.160;5.298;2023-04-10T15:55:49;17.40;63.20
43995;DHT22;51687;52.160;5.298;2023-04-10T15:58:16;17.40;63.20
43995;DHT22;51687;52.160;5.298;2023-04-10T16:00:42;17.40;62.90
43995;DHT22;51687;52.160;5.298;2023-04-10T16:03:09;17.40;63.10
43995;DHT22;51687;52.160;5.298;2023-04-10T16:05:36;17.40;62.90
43995;DHT22;51687;52.160;5.298;2023-04-10T16:08:03;17.40;62.90
43995;DHT22;51687;52.160;5.298;2023-04-10T16:10:30;17.30;63.10
43995;DHT22;51687;52.160;5.298;2023-04-10T16:12:56;17.20;63.30
43995;DHT22;51687;52.160;5.298;2023-04-10T16:27:48;17.10;63.70
43995;DHT22;51687;52.160;5.298;2023-04-10T16:30:15;16.70;65.70
43995;DHT22;51687;52.160;5.298;2023-04-10T16:32:43;16.70;66.00
43995;DHT22;51687;52.160;5.298;2023-04-10T16:35:10;16.60;66.20
43995;DHT22;51687;52.160;5.298;2023-04-10T16:37:37;16.60;66.50
43995;DHT22;51687;52.160;5.298;2023-04-10T16:40:04;16.60;66.50
43995;DHT22;51687;52.160;5.298;2023-04-10T16:42:31;16.50;66.50
43995;DHT22;51687;52.160;5.298;2023-04-10T16:44:59;16.50;66.70
43995;DHT22;51687;52.160;5.298;2023-04-10T16:47:27;16.50;67.10
43995;DHT22;51687;52.160;5.298;2023-04-10T16:49:54;16.50;67.30
43995;DHT22;51687;52.160;5.298;2023-04-10T16:52:21;16.50;67.40
43995;DHT22;51687;52.160;5.298;2023-04-10T16:54:48;16.40;67.20
43995;DHT22;51687;52.160;5.298;2023-04-10T16:57:14;16.40;67.60
43995;DHT22;51687;52.160;5.298;2023-04-10T16:59:41;16.40;67.60
43995;DHT22;51687;52.160;5.298;2023-04-10T17:02:09;16.30;67.50
43995;DHT22;51687;52.160;5.298;2023-04-10T17:04:36;16.20;67.60
43995;DHT22;51687;52.160;5.298;2023-04-10T17:07:02;16.20;67.80
43995;DHT22;51687;52.160;5.298;2023-04-10T17:09:29;16.20;67.80
43995;DHT22;51687;52.160;5.298;2023-04-10T17:11:57;16.20;67.60
43995;DHT22;51687;52.160;5.298;2023-04-10T17:14:24;16.10;67.70
43995;DHT22;51687;52.160;5.298;2023-04-10T17:16:50;16.10;67.50
43995;DHT22;51687;52.160;5.298;2023-04-10T17:19:17;16.10;67.70
43995;DHT22;51687;52.160;5.298;2023-04-10T17:21:45;16.10;67.70
43995;DHT22;51687;52.160;5.298;2023-04-10T17:24:12;16.10;67.70
43995;DHT22;51687;52.160;5.298;2023-04-10T17:26:38;16.10;67.80
43995;DHT22;51687;52.160;5.298;2023-04-10T17:29:05;16.10;68.10
43995;DHT22;51687;52.160;5.298;2023-04-10T17:31:32;16.00;68.00
43995;DHT22;51687;52.160;5.298;2023-04-10T17:33:59;16.00;68.10
43995;DHT22;51687;52.160;5.298;2023-04-10T17:36:25;16.10;68.20
43995;DHT22;51687;52.160;5.298;2023-04-10T17:38:52;16.10;68.10
43995;DHT22;51687;52.160;5.298;2023-04-10T17:41:19;16.10;68.00
43995;DHT22;51687;52.160;5.298;2023-04-10T17:43:47;16.10;67.90
43995;DHT22;51687;52.160;5.298;2023-04-10T17:46:14;16.10;67.70
43995;DHT22;51687;52.160;5.298;2023-04-10T17:48:42;16.00;68.00
43995;DHT22;51687;52.160;5.298;2023-04-10T17:51:09;16.00;68.10
43995;DHT22;51687;52.160;5.298;2023-04-10T17:53:36;16.10;68.20
43995;DHT22;51687;52.160;5.298;2023-04-10T17:56:03;16.10;68.00
43995;DHT22;51687;52.160;5.298;2023-04-10T17:58:30;16.10;67.90
43995;DHT22;51687;52.160;5.298;2023-04-10T18:00:57;16.10;67.90
43995;DHT22;51687;52.160;5.298;2023-04-10T18:03:24;16.00;67.70
43995;DHT22;51687;52.160;5.298;2023-04-10T18:05:51;16.00;67.80
43995;DHT22;51687;52.160;5.298;2023-04-10T18:08:18;16.00;67.80
43995;DHT22;51687;52.160;5.298;2023-04-10T18:10:45;16.00;67.90
43995;DHT22;51687;52.160;5.298;2023-04-10T18:13:11;16.00;67.70
43995;DHT22;51687;52.160;5.298;2023-04-10T18:15:38;16.00;67.80
43995;DHT22;51687;52.160;5.298;2023-04-10T18:18:05;16.00;67.70
43995;DHT22;51687;52.160;5.298;2023-04-10T18:20:33;16.00;67.70
43995;DHT22;51687;52.160;5.298;2023-04-10T18:22:59;15.90;67.50
43995;DHT22;51687;52.160;5.298;2023-04-10T18:25:29;15.90;67.50
43995;DHT22;51687;52.160;5.298;2023-04-10T18:27:56;15.90;67.60
43995;DHT22;51687;52.160;5.298;2023-04-10T18:30:40;15.90;67.40
43995;DHT22;51687;52.160;5.298;2023-04-10T18:33:07;15.90;67.40
43995;DHT22;51687;52.160;5.298;2023-04-10T18:35:36;15.90;67.50
43995;DHT22;51687;52.160;5.298;2023-04-10T18:38:03;15.90;67.50
43995;DHT22;51687;52.160;5.298;2023-04-10T18:40:30;15.90;67.50
43995;DHT22;51687;52.160;5.298;2023-04-10T18:42:56;15.90;67.30
43995;DHT22;51687;52.160;5.298;2023-04-10T18:45:25;15.90;67.30
43995;DHT22;51687;52.160;5.298;2023-04-10T18:47:51;15.90;67.10
43995;DHT22;51687;52.160;5.298;2023-04-10T18:50:18;15.90;67.00
43995;DHT22;51687;52.160;5.298;2023-04-10T18:52:45;15.90;66.90
43995;DHT22;51687;52.160;5.298;2023-04-10T18:55:12;15.90;67.00
43995;DHT22;51687;52.160;5.298;2023-04-10T18:57:39;15.90;67.10
43995;DHT22;51687;52.160;5.298;2023-04-10T19:00:06;15.90;66.80
43995;DHT22;51687;52.160;5.298;2023-04-10T19:02:33;15.90;66.80
43995;DHT22;51687;52.160;5.298;2023-04-10T19:05:01;15.90;66.90
43995;DHT22;51687;52.160;5.298;2023-04-10T19:07:27;15.90;66.60
43995;DHT22;51687;52.160;5.298;2023-04-10T19:09:54;15.90;66.30
43995;DHT22;51687;52.160;5.298;2023-04-10T19:12:21;15.90;66.20
43995;DHT22;51687;52.160;5.298;2023-04-10T19:14:48;15.80;66.30
43995;DHT22;51687;52.160;5.298;2023-04-10T19:17:14;15.80;66.30
43995;DHT22;51687;52.160;5.298;2023-04-10T19:19:41;15.80;66.60
43995;DHT22;51687;52.160;5.298;2023-04-10T19:22:08;15.70;66.50
43995;DHT22;51687;52.160;5.298;2023-04-10T19:24:35;15.70;66.50
43995;DHT22;51687;52.160;5.298;2023-04-10T19:27:02;15.70;66.80
43995;DHT22;51687;52.160;5.298;2023-04-10T19:29:29;15.70;67.00
43995;DHT22;51687;52.160;5.298;2023-04-10T19:31:56;15.70;66.70
43995;DHT22;51687;52.160;5.298;2023-04-10T19:34:23;15.70;66.50
43995;DHT22;51687;52.160;5.298;2023-04-10T19:36:50;15.70;66.50
43995;DHT22;51687;52.160;5.298;2023-04-10T19:39:16;15.80;66.50
43995;DHT22;51687;52.160;5.298;2023-04-10T19:41:43;15.80;66.30
43995;DHT22;51687;52.160;5.298;2023-04-10T19:44:10;15.70;66.40
43995;DHT22;51687;52.160;5.298;2023-04-10T19:46:36;15.60;66.70